createdAt,value
2023-02-19T00:01:43.295Z,100260.88
2023-02-19T00:04:48.456Z,100253.34
2023-02-19T00:07:55.105Z,100263.41
2023-02-19T00:11:03.410Z,100256.72
2023-02-19T00:14:08.882Z,100265.91
2023-02-19T00:17:14.275Z,100249.97
2023-02-19T00:20:19.760Z,100258.34
2023-02-19T00:23:27.256Z,100250.78
2023-02-19T00:26:32.830Z,100249.94
2023-02-19T00:29:38.177Z,100250.78
2023-02-19T00:32:43.488Z,100265.03
2023-02-19T00:35:49.859Z,100255.81
2023-02-19T00:38:59.166Z,100270.91
2023-02-19T00:42:04.379Z,100270.06
2023-02-19T00:45:12.119Z,100265.03
2023-02-19T00:48:17.591Z,100254.94
2023-02-19T00:51:24.066Z,100269.19
2023-02-19T00:54:31.572Z,100267.50
2023-02-19T00:57:37.354Z,100275.03
2023-02-19T01:00:42.362Z,100273.38
2023-02-19T01:03:47.809Z,100277.53
2023-02-19T01:06:52.958Z,100270.84
2023-02-19T01:09:59.492Z,100270.00
2023-02-19T01:13:04.677Z,100276.69
2023-02-19T01:16:14.388Z,100279.19
2023-02-19T01:19:19.833Z,100269.94
2023-02-19T01:22:25.101Z,100278.34
2023-02-19T01:25:32.502Z,100280.00
2023-02-19T01:28:37.707Z,100269.94
2023-02-19T01:31:43.440Z,100265.75
2023-02-19T01:34:48.758Z,100278.31
2023-02-19T01:37:54.040Z,100264.06
2023-02-19T01:41:02.641Z,100266.56
2023-02-19T01:44:09.406Z,100259.03
2023-02-19T01:47:14.636Z,100273.25
2023-02-19T01:50:20.242Z,100268.25
2023-02-19T01:53:27.502Z,100266.56
2023-02-19T01:56:38.379Z,100257.38
2023-02-19T01:59:44.926Z,100266.59
2023-02-19T02:02:54.284Z,100262.38
2023-02-19T02:06:03.246Z,100267.41
2023-02-19T02:09:26.080Z,100276.59
2023-02-19T02:12:35.407Z,100272.41
2023-02-19T02:15:46.304Z,100280.75
2023-02-19T02:19:00.087Z,100259.84
2023-02-19T02:22:12.582Z,100268.19
2023-02-19T02:25:45.598Z,100258.97
2023-02-19T02:29:22.962Z,100259.81
2023-02-19T02:32:34.742Z,100269.84
2023-02-19T02:35:44.251Z,100253.97
2023-02-19T02:38:50.594Z,100249.75
2023-02-19T02:42:18.755Z,100244.72
2023-02-19T02:45:37.420Z,100252.31
2023-02-19T02:48:55.560Z,100255.66
2023-02-19T02:52:22.134Z,100250.59
2023-02-19T02:55:26.415Z,100245.56
2023-02-19T02:58:32.154Z,100249.75
2023-02-19T03:02:14.863Z,100263.13
2023-02-19T03:05:41.101Z,100250.59
2023-02-19T03:08:50.842Z,100250.59
2023-02-19T03:12:14.789Z,100252.22
2023-02-19T03:15:39.810Z,100262.31
2023-02-19T03:19:04.308Z,100253.09
2023-02-19T03:22:13.854Z,100266.50
2023-02-19T03:25:39.287Z,100263.13
2023-02-19T03:29:03.846Z,100276.56
2023-02-19T03:32:13.689Z,100278.19
2023-02-19T03:35:21.034Z,100276.53
2023-02-19T03:38:33.741Z,100290.75
2023-02-19T03:41:45.134Z,100294.91
2023-02-19T03:45:00.412Z,100275.72
2023-02-19T03:48:23.729Z,100285.75
2023-02-19T03:51:33.476Z,100293.28
2023-02-19T03:54:47.564Z,100287.44
2023-02-19T03:57:57.946Z,100288.31
2023-02-19T04:01:06.411Z,100302.56
2023-02-19T04:04:18.480Z,100310.09
2023-02-19T04:07:24.186Z,100305.09
2023-02-19T04:10:31.991Z,100322.63
2023-02-19T04:13:42.357Z,100318.44
2023-02-19T04:16:55.830Z,100327.66
2023-02-19T04:20:02.446Z,100326.00
2023-02-19T04:23:08.039Z,100326.88
2023-02-19T04:26:16.178Z,100313.47
2023-02-19T04:29:21.083Z,100326.84
2023-02-19T04:32:26.521Z,100318.50
2023-02-19T04:35:31.413Z,100332.75
2023-02-19T04:38:39.116Z,100322.75
2023-02-19T04:41:45.891Z,100326.06
2023-02-19T04:44:52.296Z,100321.06
2023-02-19T04:47:58.811Z,100323.59
2023-02-19T04:51:08.202Z,100315.22
2023-02-19T04:54:13.376Z,100320.28
2023-02-19T04:57:20.092Z,100326.13
2023-02-19T05:00:26.004Z,100318.53
2023-02-19T05:03:31.786Z,100308.47
2023-02-19T05:06:36.573Z,100319.31
2023-02-19T05:09:42.923Z,100313.47
2023-02-19T05:12:49.468Z,100324.34
2023-02-19T05:15:59.101Z,100331.81
2023-02-19T05:19:04.370Z,100327.63
2023-02-19T05:22:09.819Z,100323.47
2023-02-19T05:25:18.149Z,100325.13
2023-02-19T05:28:34.334Z,100323.41
2023-02-19T05:31:39.706Z,100320.91
2023-02-19T05:34:44.835Z,100324.25
2023-02-19T05:37:49.962Z,100320.88
2023-02-19T05:40:55.127Z,100332.59
2023-02-19T05:44:02.179Z,100329.22
2023-02-19T05:47:08.361Z,100325.91
2023-02-19T05:50:13.550Z,100341.75
2023-02-19T05:53:20.465Z,100330.06
2023-02-19T05:56:33.507Z,100345.94
2023-02-19T05:59:42.433Z,100352.59
2023-02-19T06:02:48.231Z,100330.03
2023-02-19T06:05:53.476Z,100357.63
2023-02-19T06:08:59.396Z,100356.81
2023-02-19T06:12:05.317Z,100368.53
2023-02-19T06:15:13.775Z,100365.13
2023-02-19T06:18:19.604Z,100370.19
2023-02-19T06:21:24.429Z,100366.00
2023-02-19T06:24:30.074Z,100380.25
2023-02-19T06:27:35.273Z,100369.34
2023-02-19T06:30:42.111Z,100376.88
2023-02-19T06:33:47.427Z,100372.69
2023-02-19T06:36:53.224Z,100389.44
2023-02-19T06:39:58.893Z,100378.56
2023-02-19T06:43:04.206Z,100390.25
2023-02-19T06:46:12.705Z,100393.59
2023-02-19T06:49:18.144Z,100392.81
2023-02-19T06:52:25.076Z,100402.81
2023-02-19T06:55:30.257Z,100393.63
2023-02-19T06:58:36.016Z,100412.03
2023-02-19T07:01:42.794Z,100407.03
2023-02-19T07:04:48.032Z,100407.84
2023-02-19T07:07:53.329Z,100417.91
2023-02-19T07:11:00.089Z,100408.75
2023-02-19T07:14:07.767Z,100417.91
2023-02-19T07:17:16.050Z,100419.69
2023-02-19T07:20:23.174Z,100416.34
2023-02-19T07:23:30.534Z,100426.31
2023-02-19T07:26:38.054Z,100421.34
2023-02-19T07:29:43.846Z,100436.41
2023-02-19T07:32:52.360Z,100438.09
2023-02-19T07:35:59.932Z,100428.09
2023-02-19T07:39:05.032Z,100434.75
2023-02-19T07:42:13.371Z,100438.09
2023-02-19T07:45:18.916Z,100439.81
2023-02-19T07:48:26.723Z,100443.97
2023-02-19T07:51:33.026Z,100456.53
2023-02-19T07:54:38.295Z,100450.72
2023-02-19T07:57:47.725Z,100457.47
2023-02-19T08:00:53.045Z,100457.44
2023-02-19T08:04:00.930Z,100454.13
2023-02-19T08:07:06.345Z,100461.66
2023-02-19T08:10:30.492Z,100445.78
2023-02-19T08:13:35.613Z,100460.84
2023-02-19T08:16:43.211Z,100456.66
2023-02-19T08:19:50.904Z,100465.00
2023-02-19T08:22:58.284Z,100458.38
2023-02-19T08:26:03.716Z,100458.41
2023-02-19T08:29:09.557Z,100461.75
2023-02-19T08:32:15.447Z,100465.13
2023-02-19T08:35:29.764Z,100469.28
2023-02-19T08:38:38.152Z,100469.34
2023-02-19T08:41:44.238Z,100479.41
2023-02-19T08:44:49.335Z,100468.50
2023-02-19T08:47:55.353Z,100471.91
2023-02-19T08:51:04.851Z,100470.22
2023-02-19T08:54:10.019Z,100474.44
2023-02-19T08:57:15.210Z,100478.66
2023-02-19T09:00:21.476Z,100473.63
2023-02-19T09:03:26.786Z,100469.47
2023-02-19T09:06:33.472Z,100481.19
2023-02-19T09:09:39.437Z,100493.75
2023-02-19T09:12:45.988Z,100487.06
2023-02-19T09:15:50.864Z,100503.06
2023-02-19T09:18:57.333Z,100494.69
2023-02-19T09:22:10.354Z,100489.66
2023-02-19T09:25:15.589Z,100498.06
2023-02-19T09:28:21.975Z,100489.72
2023-02-19T09:31:27.331Z,100492.25
2023-02-19T09:34:35.824Z,100496.47
2023-02-19T09:37:43.608Z,100500.63
2023-02-19T09:40:49.913Z,100503.25
2023-02-19T09:43:55.699Z,100507.47
2023-02-19T09:47:02.333Z,100508.28
2023-02-19T09:50:11.137Z,100514.13
2023-02-19T09:53:22.079Z,100508.28
2023-02-19T09:56:28.308Z,100514.13
2023-02-19T09:59:42.044Z,100521.72
2023-02-19T10:02:47.405Z,100531.84
2023-02-19T10:05:53.013Z,100519.31
2023-02-19T10:09:07.186Z,100533.59
2023-02-19T10:12:17.350Z,100523.47
2023-02-19T10:15:27.118Z,100549.50
2023-02-19T10:18:39.615Z,100541.97
2023-02-19T10:21:44.923Z,100555.41
2023-02-19T10:24:53.876Z,100553.75
2023-02-19T10:28:00.572Z,100562.97
2023-02-19T10:31:07.142Z,100570.50
2023-02-19T10:34:22.511Z,100562.19
2023-02-19T10:37:29.508Z,100579.81
2023-02-19T10:40:36.273Z,100570.59
2023-02-19T10:43:45.530Z,100563.84
2023-02-19T10:46:55.292Z,100571.41
2023-02-19T10:50:03.407Z,100550.47
2023-02-19T10:53:22.096Z,100551.31
2023-02-19T10:56:31.488Z,100548.78
2023-02-19T10:59:37.931Z,100555.53
2023-02-19T11:02:53.506Z,100544.63
2023-02-19T11:06:03.792Z,100557.19
2023-02-19T11:09:26.132Z,100554.72
2023-02-19T11:12:34.799Z,100563.97
2023-02-19T11:15:39.825Z,100555.63
2023-02-19T11:18:53.371Z,100565.69
2023-02-19T11:22:00.346Z,100566.56
2023-02-19T11:25:10.936Z,100577.44
2023-02-19T11:28:29.251Z,100575.78
2023-02-19T11:31:37.836Z,100578.31
2023-02-19T11:34:43.611Z,100578.31
2023-02-19T11:37:59.440Z,100569.06
2023-02-19T11:41:11.516Z,100577.47
2023-02-19T11:44:30.467Z,100586.72
2023-02-19T11:48:06.527Z,100582.50
2023-02-19T11:51:32.481Z,100583.38
2023-02-19T11:54:51.195Z,100595.13
2023-02-19T11:58:08.006Z,100576.66
2023-02-19T12:01:23.519Z,100604.38
2023-02-19T12:05:00.386Z,100583.38
2023-02-19T12:08:28.672Z,100595.16
2023-02-19T12:11:46.433Z,100581.72
2023-02-19T12:15:20.243Z,100599.41
2023-02-19T12:18:51.726Z,100583.41
2023-02-19T12:22:22.026Z,100586.75
2023-02-19T12:25:44.265Z,100597.69
2023-02-19T12:29:06.418Z,100591.84
2023-02-19T12:32:43.322Z,100590.97
2023-02-19T12:35:54.088Z,100600.19
2023-02-19T12:39:04.851Z,100612.84
2023-02-19T12:42:29.690Z,100607.78
2023-02-19T12:45:39.114Z,100602.75
2023-02-19T12:48:48.732Z,100604.44
2023-02-19T12:52:00.484Z,100604.41
2023-02-19T12:55:15.180Z,100607.81
2023-02-19T12:58:27.068Z,100605.28
2023-02-19T13:01:45.394Z,100612.00
2023-02-19T13:04:56.054Z,100601.09
2023-02-19T13:08:06.078Z,100608.66
2023-02-19T13:11:15.302Z,100624.63
2023-02-19T13:14:25.742Z,100619.56
2023-02-19T13:17:37.417Z,100617.06
2023-02-19T13:20:44.509Z,100612.00
2023-02-19T13:23:59.588Z,100619.56
2023-02-19T13:27:14.677Z,100624.63
2023-02-19T13:30:35.074Z,100632.19
2023-02-19T13:33:47.911Z,100624.63
2023-02-19T13:36:53.260Z,100645.63
2023-02-19T13:40:03.854Z,100629.66
2023-02-19T13:43:26.531Z,100623.78
2023-02-19T13:46:38.657Z,100628.81
2023-02-19T13:49:45.086Z,100628.00
2023-02-19T13:52:50.938Z,100631.34
2023-02-19T13:55:57.442Z,100633.00
2023-02-19T13:59:29.759Z,100634.69
2023-02-19T14:02:36.389Z,100635.56
2023-02-19T14:06:02.798Z,100638.06
2023-02-19T14:09:48.277Z,100632.16
2023-02-19T14:12:54.824Z,100644.75
2023-02-19T14:16:00.424Z,100648.97
2023-02-19T14:19:06.073Z,100643.94
2023-02-19T14:23:04.692Z,100650.63
2023-02-19T14:26:10.423Z,100670.84
2023-02-19T14:29:17.787Z,100673.34
2023-02-19T14:32:23.168Z,100679.19
2023-02-19T14:35:32.340Z,100681.72
2023-02-19T14:38:39.959Z,100682.53
2023-02-19T14:41:47.679Z,100682.53
2023-02-19T14:45:30.036Z,100683.38
2023-02-19T14:48:41.907Z,100701.88
2023-02-19T14:51:49.561Z,100687.59
2023-02-19T14:54:57.317Z,100700.19
2023-02-19T14:58:05.196Z,100703.53
2023-02-19T15:01:27.431Z,100703.50
2023-02-19T15:04:37.138Z,100708.53
2023-02-19T15:07:44.026Z,100712.78
2023-02-19T15:10:49.367Z,100716.94
2023-02-19T15:13:57.580Z,100716.09
2023-02-19T15:17:05.562Z,100723.66
2023-02-19T15:20:14.231Z,100723.72
2023-02-19T15:23:23.859Z,100734.59
2023-02-19T15:26:34.883Z,100733.75
2023-02-19T15:29:47.656Z,100727.03
2023-02-19T15:33:01.431Z,100741.22
2023-02-19T15:36:09.377Z,100729.50
2023-02-19T15:39:20.642Z,100746.34
2023-02-19T15:42:29.002Z,100747.06
2023-02-19T15:45:41.863Z,100762.16
2023-02-19T15:48:51.464Z,100764.75
2023-02-19T15:52:00.898Z,100763.13
2023-02-19T15:55:13.051Z,100764.72
2023-02-19T15:58:22.240Z,100757.09
2023-02-19T16:01:28.583Z,100763.91
2023-02-19T16:04:38.293Z,100768.06
2023-02-19T16:07:44.363Z,100771.44
2023-02-19T16:11:00.303Z,100773.00
2023-02-19T16:14:23.420Z,100779.72
2023-02-19T16:17:29.272Z,100785.59
2023-02-19T16:20:37.222Z,100783.88
2023-02-19T16:23:44.522Z,100791.41
2023-02-19T16:26:51.203Z,100783.91
2023-02-19T16:29:57.720Z,100779.59
2023-02-19T16:33:22.622Z,100784.59
2023-02-19T16:36:41.483Z,100782.06
2023-02-19T16:39:47.106Z,100784.59
2023-02-19T16:43:26.974Z,100780.25
2023-02-19T16:46:32.056Z,100781.09
2023-02-19T16:49:37.434Z,100771.09
2023-02-19T16:52:54.308Z,100770.22
2023-02-19T16:56:00.306Z,100771.81
2023-02-19T16:59:07.233Z,100766.03
2023-02-19T17:02:18.162Z,100771.78
2023-02-19T17:05:24.304Z,100775.91
2023-02-19T17:08:37.092Z,100774.22
2023-02-19T17:11:42.270Z,100765.91
2023-02-19T17:14:48.189Z,100775.03
2023-02-19T17:17:53.433Z,100785.84
2023-02-19T17:21:03.798Z,100791.69
2023-02-19T17:24:12.560Z,100786.72
2023-02-19T17:27:19.615Z,100779.28
2023-02-19T17:30:30.305Z,100775.91
2023-02-19T17:33:35.733Z,100769.06
2023-02-19T17:36:42.964Z,100766.69
2023-02-19T17:39:49.591Z,100784.22
2023-02-19T17:43:04.375Z,100782.47
2023-02-19T17:46:16.791Z,100774.06
2023-02-19T17:49:24.527Z,100774.94
2023-02-19T17:52:29.892Z,100774.91
2023-02-19T17:55:36.570Z,100786.50
2023-02-19T17:58:42.369Z,100795.69
2023-02-19T18:01:49.658Z,100800.69
2023-02-19T18:04:54.833Z,100798.97
2023-02-19T18:08:00.451Z,100807.44
2023-02-19T18:11:07.870Z,100814.94
2023-02-19T18:14:13.980Z,100820.78
2023-02-19T18:17:19.240Z,100825.06
2023-02-19T18:20:25.892Z,100814.19
2023-02-19T18:23:31.411Z,100818.34
2023-02-19T18:26:37.869Z,100824.97
2023-02-19T18:29:43.303Z,100838.34
2023-02-19T18:32:48.892Z,100837.53
2023-02-19T18:35:54.255Z,100839.97
2023-02-19T18:39:00.139Z,100843.38
2023-02-19T18:42:06.875Z,100853.44
2023-02-19T18:45:13.104Z,100849.22
2023-02-19T18:48:18.405Z,100854.19
2023-02-19T18:51:24.562Z,100862.59
2023-02-19T18:54:30.581Z,100854.94
2023-02-19T18:57:37.154Z,100847.41
2023-02-19T19:00:42.605Z,100839.13
2023-02-19T19:03:49.453Z,100853.31
2023-02-19T19:06:54.614Z,100845.75
2023-02-19T19:10:00.204Z,100848.34
2023-02-19T19:13:09.142Z,100852.47
2023-02-19T19:16:14.615Z,100853.19
2023-02-19T19:19:21.177Z,100851.56
2023-02-19T19:22:26.776Z,100848.16
2023-02-19T19:25:34.273Z,100859.06
2023-02-19T19:28:44.383Z,100856.38
2023-02-19T19:31:49.749Z,100861.41
2023-02-19T19:34:55.064Z,100849.69
2023-02-19T19:38:00.396Z,100850.47
2023-02-19T19:41:06.492Z,100857.16
2023-02-19T19:44:15.451Z,100854.69
2023-02-19T19:47:20.648Z,100846.28
2023-02-19T19:50:25.844Z,100852.09
2023-02-19T19:53:31.028Z,100841.22
2023-02-19T19:56:42.423Z,100857.16
2023-02-19T19:59:52.166Z,100853.81
2023-02-19T20:02:57.585Z,100852.06
2023-02-19T20:06:02.777Z,100847.84
2023-02-19T20:09:07.698Z,100869.56
2023-02-19T20:12:14.798Z,100851.19
2023-02-19T20:15:24.377Z,100853.66
2023-02-19T20:18:30.555Z,100860.28
2023-02-19T20:21:35.762Z,100857.75
2023-02-19T20:24:40.962Z,100867.84
2023-02-19T20:27:45.901Z,100873.66
2023-02-19T20:30:52.838Z,100880.38
2023-02-19T20:33:58.088Z,100882.03
2023-02-19T20:37:03.470Z,100879.53
2023-02-19T20:40:09.783Z,100877.81
2023-02-19T20:43:15.957Z,100884.56
2023-02-19T20:46:23.535Z,100893.78
2023-02-19T20:49:30.201Z,100887.03
2023-02-19T20:52:35.443Z,100887.00
2023-02-19T20:55:41.302Z,100881.97
2023-02-19T20:58:49.920Z,100881.16
2023-02-19T21:01:56.531Z,100878.56
2023-02-19T21:05:02.176Z,100886.84
2023-02-19T21:08:07.720Z,100886.88
2023-02-19T21:11:13.840Z,100881.00
2023-02-19T21:14:19.290Z,100880.00
2023-02-19T21:17:27.044Z,100881.72
2023-02-19T21:20:32.162Z,100876.75
2023-02-19T21:23:37.475Z,100873.25
2023-02-19T21:26:44.760Z,100864.00
2023-02-19T21:29:49.962Z,100872.41
2023-02-19T21:32:56.610Z,100867.38
2023-02-19T21:36:03.873Z,100861.53
2023-02-19T21:39:09.965Z,100855.59
2023-02-19T21:42:17.786Z,100859.69
2023-02-19T21:45:24.265Z,100873.13
2023-02-19T21:48:31.109Z,100865.59
2023-02-19T21:51:38.620Z,100882.31
2023-02-19T21:54:43.629Z,100886.53
2023-02-19T21:57:48.763Z,100869.69
2023-02-19T22:00:56.448Z,100887.94
2023-02-19T22:04:05.177Z,100884.66
2023-02-19T22:07:10.600Z,100877.97
2023-02-19T22:10:16.771Z,100886.34
2023-02-19T22:13:21.968Z,100885.44
2023-02-19T22:16:28.811Z,100890.47
2023-02-19T22:19:35.508Z,100884.50
2023-02-19T22:22:41.346Z,100877.03
2023-02-19T22:25:46.436Z,100887.84
2023-02-19T22:28:51.449Z,100873.63
2023-02-19T22:31:56.798Z,100886.19
2023-02-19T22:35:02.972Z,100874.38
2023-02-19T22:38:08.298Z,100874.41
2023-02-19T22:41:13.785Z,100864.31
2023-02-19T22:44:19.943Z,100867.69
2023-02-19T22:47:25.016Z,100867.66
2023-02-19T22:50:31.719Z,100867.59
2023-02-19T22:53:36.877Z,100860.97
2023-02-19T22:56:42.265Z,100866.78
2023-02-19T22:59:47.310Z,100853.34
2023-02-19T23:02:53.363Z,100855.91
2023-02-19T23:05:59.872Z,100854.19
2023-02-19T23:09:10.995Z,100845.06
2023-02-19T23:12:16.227Z,100835.72
2023-02-19T23:15:21.820Z,100819.84
2023-02-19T23:18:27.000Z,100829.06
2023-02-19T23:21:34.958Z,100828.09
2023-02-19T23:24:40.028Z,100821.50
2023-02-19T23:27:45.133Z,100815.66
2023-02-19T23:30:50.458Z,100811.50
2023-02-19T23:33:56.239Z,100808.16
2023-02-19T23:37:03.242Z,100808.13
2023-02-19T23:40:09.244Z,100803.97
2023-02-19T23:43:14.611Z,100808.19
2023-02-19T23:46:21.552Z,100793.91
2023-02-19T23:49:26.813Z,100803.00
2023-02-19T23:52:36.057Z,100791.41
2023-02-19T23:55:41.922Z,100801.50
2023-02-19T23:58:46.921Z,100799.88
